SBDN/PPB METAR and TAF weather

Enter ICAO airport designator
Station Type Date Time Source
SBDN METAR 2022/06/30 00:00 UTC NOAA

SBDN 300000Z 27003KT CAVOK 16/15 Q1018


Station Type Date Time Source
SBDN Decoded METAR 2022/06/30 00:00 UTC NOAA

Presidente Prudente, Brazil (SBDN) 22-07S 051-23W
Jun 29, 2022 - 08:00 PM EDT / 2022.06.30 0000 UTC
Wind: from the W (270 degrees) at 3 MPH (3 KT):0
Visibility: greater than 7 mile(s):0
Temperature: 60 F (16 C)
Dew Point: 59 F (15 C)
Relative Humidity: 93%
Pressure (altimeter): 30.06 in. Hg (1018 hPa)
ob: SBDN 300000Z 27003KT CAVOK 16/15 Q1018
cycle: 0

Station Type Date Time Source
SBDN TAF 2022/06/30 00:27 UTC NOAA

TAF SBDN 292000Z 3000/3012 20005KT CAVOK TN13/3008Z TX18/3011Z
BECMG 3003/3006 15006KT 8000 PROB30 3008/3012 3000 BR BKN008
RMK PGL

Example: see airport list